Zwolle, Louisiana
Current Conditions -  °F | °C
As of 1:56 PM on Wednesday 26 Nov 2014 (Local Time) from KAQV Reporting Station
Clear Clear  
Wind Chill: 68°   Ceiling: Unl
Heat Index: 68°   Visibility: 10mi
Dew Point: 36°   Wind: 10mph
Humidity: 31%   Direction: 260°W
Pressure: 30.11"   Gusts: 21mph
Location:  31.63°N, 93.64°W
Report Text: KAQV 261956Z AUTO 26009G18KT 230V320 10SM CLR 20/02 A3011 RMK AO2 PK WND 26026/1913 SLP198 T02000022
Loading
Personal Weather Stations






























Interactive Weather Map New forecast layout! Learn more

10-Day Weather Forecast

Advertisements
Track Severe Weather on mobile